This is the latest recevied weather packets stored in our database for station/object N4CVG. If no packets are shown the sender has not sent any weather packets the latest 10 day(s).
| Time | Temp. | Humidity | Pressure | Rain* | Wind** | Luminosity | Snow |
|---|---|---|---|---|---|---|---|
| 1777792204 | 3.89° C | 73% | 1018.9 hPa | 0 mm | - | - | - |
| 1777790404 | 4.44° C | 74% | 1018.8 hPa | 0 mm | - | - | - |
| 1777788603 | 5° C | 72% | 1018.8 hPa | 0 mm | - | - | - |
| 1777788024 | 5° C | 72% | 1019 hPa | 0 mm | - | - | - |
| 1777785603 | 5.56° C | 70% | 1018.9 hPa | 0 mm | - | - | - |
| 1777783801 | 5.56° C | 70% | 1019 hPa | 0 mm | - | - | - |
| 1777779600 | 6.67° C | 66% | 1018.6 hPa | 0 mm | - | - | - |
| 1777779021 | 6.67° C | 67% | 1018.5 hPa | 0 mm | - | - | - |
| 1777776022 | 7.78° C | 70% | 1018.1 hPa | 0 mm | - | - | - |
| 1777773000 | 8.89° C | 64% | 1017.6 hPa | 0 mm | - | - | - |
| 1777771800 | 8.89° C | 62% | 1017.5 hPa | 0 mm | - | - | - |
| 1777765801 | 10.56° C | 56% | 1016.3 hPa | 0 mm | - | - | - |
| 1777765200 | 11.11° C | 55% | 1016.2 hPa | 0 mm | - | - | - |
| 1777761600 | 11.67° C | 53% | 1016.3 hPa | 0 mm | - | - | - |
| 1777761021 | 12.22° C | 54% | 1016.4 hPa | 0 mm | - | - | - |
| 1777759222 | 11.67° C | 58% | 1016.3 hPa | 0 mm | - | - | - |
| 1777758602 | 11.67° C | 55% | 1016.2 hPa | 0 mm | - | - | - |
| 1777755600 | 12.22° C | 57% | 1016 hPa | 0 mm | - | - | - |
| 1777753821 | 12.22° C | 56% | 1016.1 hPa | 0 mm | - | - | - |
| 1777753201 | 12.22° C | 58% | 1016.2 hPa | 0 mm | - | - | - |
| 1777750802 | 12.78° C | 53% | 1016.4 hPa | 0 mm | - | - | - |
| 1777749600 | 12.78° C | 55% | 1016.5 hPa | 0 mm | - | - | - |
| 1777747204 | 12.22° C | 58% | 1016.8 hPa | 0 mm | - | - | - |
| 1777745400 | 12.78° C | 54% | 1016.9 hPa | 0 mm | - | - | - |
| 1777742400 | 13.33° C | 52% | 1016.9 hPa | 0 mm | - | - | - |
* Rain latest hour (hover to see other rain measurements)
** Current wind speed in m/s (hover to see current wind gust speed)